createdAt,value
2017-11-12T00:00:59.863Z,0.00
2017-11-12T00:01:59.800Z,0.00
2017-11-12T00:02:59.732Z,0.00
2017-11-12T00:03:59.671Z,0.00
2017-11-12T00:04:59.611Z,0.00
2017-11-12T00:05:59.557Z,0.00
2017-11-12T00:06:59.499Z,0.00
2017-11-12T00:07:59.422Z,0.00
2017-11-12T00:08:59.359Z,0.00
2017-11-12T00:09:59.297Z,0.00
2017-11-12T00:10:59.227Z,0.00
2017-11-12T00:11:59.168Z,0.00
2017-11-12T00:12:59.109Z,0.00
2017-11-12T00:13:59.052Z,0.00
2017-11-12T00:14:58.982Z,0.00
2017-11-12T00:15:58.918Z,0.00
2017-11-12T00:16:58.855Z,0.00
2017-11-12T00:17:58.785Z,0.00
2017-11-12T00:18:58.728Z,0.00
2017-11-12T00:19:58.664Z,0.00
2017-11-12T00:20:58.606Z,0.00
2017-11-12T00:21:58.549Z,0.00
2017-11-12T00:22:58.494Z,0.00
2017-11-12T00:23:58.413Z,0.00
2017-11-12T00:24:58.349Z,0.00
2017-11-12T00:25:58.286Z,0.00
2017-11-12T00:26:58.221Z,0.00
2017-11-12T00:27:58.161Z,0.00
2017-11-12T00:28:58.102Z,0.00
2017-11-12T00:29:58.047Z,0.00
2017-11-12T00:30:57.995Z,0.00
2017-11-12T00:31:57.910Z,0.00
2017-11-12T00:32:57.849Z,0.00
2017-11-12T00:33:57.778Z,0.00
2017-11-12T00:34:57.720Z,0.00
2017-11-12T00:35:57.658Z,0.00
2017-11-12T00:36:57.599Z,0.00
2017-11-12T00:37:57.544Z,0.00
2017-11-12T00:38:57.489Z,0.00
2017-11-12T00:39:57.405Z,0.00
2017-11-12T00:40:57.345Z,0.00
2017-11-12T00:41:57.275Z,0.00
2017-11-12T00:42:57.215Z,0.00
2017-11-12T00:43:57.154Z,0.00
2017-11-12T00:44:57.095Z,0.00
2017-11-12T00:45:57.042Z,0.00
2017-11-12T00:46:56.966Z,0.00
2017-11-12T00:47:56.903Z,0.00
2017-11-12T00:48:56.834Z,0.00
2017-11-12T00:49:56.772Z,0.00
2017-11-12T00:50:56.712Z,0.00
2017-11-12T00:51:56.651Z,0.00
2017-11-12T00:52:56.594Z,0.00
2017-11-12T00:53:56.539Z,0.00
2017-11-12T00:54:56.460Z,0.00
2017-11-12T00:55:56.397Z,0.00
2017-11-12T00:56:56.334Z,0.00
2017-11-12T00:57:56.277Z,0.00
2017-11-12T00:58:56.209Z,0.00
2017-11-12T00:59:56.149Z,0.00
2017-11-12T01:00:56.090Z,0.00
2017-11-12T01:01:56.036Z,0.00
2017-11-12T01:02:55.959Z,0.00
2017-11-12T01:03:55.894Z,0.00
2017-11-12T01:04:55.822Z,0.00
2017-11-12T01:05:55.764Z,0.00
2017-11-12T01:06:55.703Z,0.00
2017-11-12T01:07:55.643Z,0.00
2017-11-12T01:08:55.588Z,0.00
2017-11-12T01:09:55.535Z,0.00
2017-11-12T01:10:55.452Z,0.00
2017-11-12T01:11:55.388Z,0.00
2017-11-12T01:12:55.320Z,0.00
2017-11-12T01:13:55.259Z,0.00
2017-11-12T01:14:55.201Z,0.00
2017-11-12T01:15:55.142Z,0.00
2017-11-12T01:16:55.085Z,0.00
2017-11-12T01:17:55.033Z,0.00
2017-11-12T01:18:54.945Z,0.00
2017-11-12T01:19:54.877Z,0.00
2017-11-12T01:20:54.815Z,0.00
2017-11-12T01:21:54.756Z,0.00
2017-11-12T01:22:54.696Z,0.00
2017-11-12T01:23:54.638Z,0.00
2017-11-12T01:24:54.583Z,0.00
2017-11-12T01:25:54.505Z,0.00
2017-11-12T01:26:54.442Z,0.00
2017-11-12T01:27:54.374Z,0.00
2017-11-12T01:28:54.310Z,0.00
2017-11-12T01:29:54.251Z,0.00
2017-11-12T01:30:54.194Z,0.00
2017-11-12T01:31:54.135Z,0.00
2017-11-12T01:32:54.080Z,0.00
2017-11-12T01:33:54.000Z,0.00
2017-11-12T01:34:53.937Z,0.00
2017-11-12T01:35:53.866Z,0.00
2017-11-12T01:36:53.811Z,0.00
2017-11-12T01:37:53.748Z,0.00
2017-11-12T01:38:53.688Z,0.00
2017-11-12T01:39:53.633Z,0.00
2017-11-12T01:40:53.572Z,0.00
2017-11-12T01:41:53.495Z,0.00
2017-11-12T01:42:53.431Z,0.00
2017-11-12T01:43:53.362Z,0.00
2017-11-12T01:44:53.302Z,0.00
2017-11-12T01:45:53.242Z,0.00
2017-11-12T01:46:53.187Z,0.00
2017-11-12T01:47:53.129Z,0.00
2017-11-12T01:48:53.049Z,0.00
2017-11-12T01:49:52.988Z,0.00
2017-11-12T01:50:52.919Z,0.00
2017-11-12T01:51:52.859Z,0.00
2017-11-12T01:52:52.798Z,0.00
2017-11-12T01:53:52.740Z,0.00
2017-11-12T01:54:52.682Z,0.00
2017-11-12T01:55:52.627Z,0.00
2017-11-12T01:56:52.546Z,0.00
2017-11-12T01:57:52.484Z,0.00
2017-11-12T01:58:52.419Z,0.00
2017-11-12T01:59:52.358Z,0.00
2017-11-12T02:00:52.293Z,0.00
2017-11-12T02:01:52.235Z,0.00
2017-11-12T02:02:52.180Z,0.00
2017-11-12T02:03:52.104Z,0.00
2017-11-12T02:04:52.049Z,0.00
2017-11-12T02:05:51.971Z,0.00
2017-11-12T02:06:51.910Z,0.00
2017-11-12T02:07:51.850Z,0.00
2017-11-12T02:08:51.788Z,0.00
2017-11-12T02:09:51.731Z,0.00
2017-11-12T02:10:51.676Z,0.00
2017-11-12T02:11:51.593Z,0.00
2017-11-12T02:12:51.534Z,0.00
2017-11-12T02:13:51.466Z,0.00
2017-11-12T02:14:51.407Z,0.00
2017-11-12T02:15:51.346Z,0.00
2017-11-12T02:16:51.285Z,0.00
2017-11-12T02:17:51.220Z,0.00
2017-11-12T02:18:51.173Z,0.00
2017-11-12T02:19:51.095Z,0.00
2017-11-12T02:20:51.030Z,0.00
2017-11-12T02:21:50.961Z,0.00
2017-11-12T02:22:50.905Z,0.00
2017-11-12T02:23:50.840Z,0.00
2017-11-12T02:24:50.781Z,0.00
2017-11-12T02:25:50.725Z,0.00
2017-11-12T02:26:50.671Z,0.00
2017-11-12T02:27:50.589Z,0.00
2017-11-12T02:28:50.519Z,0.00
2017-11-12T02:29:50.457Z,0.00
2017-11-12T02:30:50.398Z,0.00
2017-11-12T02:31:50.335Z,0.00
2017-11-12T02:32:50.280Z,0.00
2017-11-12T02:33:50.221Z,0.00
2017-11-12T02:34:50.146Z,0.00
2017-11-12T02:35:50.084Z,0.00
2017-11-12T02:36:50.018Z,0.00
2017-11-12T02:37:49.955Z,0.00
2017-11-12T02:38:49.893Z,0.00
2017-11-12T02:39:49.830Z,0.00
2017-11-12T02:40:49.777Z,0.00
2017-11-12T02:41:49.728Z,0.00
2017-11-12T02:42:49.638Z,0.00
2017-11-12T02:43:49.575Z,0.00
2017-11-12T02:44:49.506Z,0.00
2017-11-12T02:45:49.447Z,0.00
2017-11-12T02:46:49.386Z,0.00
2017-11-12T02:47:49.320Z,0.00
2017-11-12T02:48:49.274Z,0.00
2017-11-12T02:49:49.194Z,0.00
2017-11-12T02:50:49.130Z,0.00
2017-11-12T02:51:49.058Z,0.00
2017-11-12T02:52:49.004Z,0.00
2017-11-12T02:53:48.938Z,0.00
2017-11-12T02:54:48.881Z,0.00
2017-11-12T02:55:48.826Z,0.00
2017-11-12T02:56:48.747Z,0.00
2017-11-12T02:57:48.683Z,0.00
2017-11-12T02:58:48.612Z,0.00
2017-11-12T02:59:48.552Z,0.00
2017-11-12T03:00:48.493Z,0.00
2017-11-12T03:01:48.432Z,0.00
2017-11-12T03:02:48.363Z,0.00
2017-11-12T03:03:48.302Z,0.00
2017-11-12T03:04:48.237Z,0.00
2017-11-12T03:05:48.167Z,0.00
2017-11-12T03:06:48.105Z,0.00
2017-11-12T03:07:48.045Z,0.00
2017-11-12T03:08:47.985Z,0.00
2017-11-12T03:09:47.929Z,0.00
2017-11-12T03:10:47.858Z,0.00
2017-11-12T03:11:47.793Z,0.00
2017-11-12T03:12:47.721Z,0.00
2017-11-12T03:13:47.658Z,0.00
2017-11-12T03:14:47.597Z,0.00
2017-11-12T03:15:47.537Z,0.00
2017-11-12T03:16:47.480Z,0.00
2017-11-12T03:17:47.407Z,0.00
2017-11-12T03:18:47.344Z,0.00
2017-11-12T03:19:47.273Z,0.00
2017-11-12T03:20:47.209Z,0.00
2017-11-12T03:21:47.148Z,0.00
2017-11-12T03:22:47.089Z,0.00
2017-11-12T03:23:47.033Z,0.00
2017-11-12T03:24:46.960Z,0.00
2017-11-12T03:25:46.895Z,0.00
2017-11-12T03:26:46.824Z,0.00
2017-11-12T03:27:46.760Z,0.00
2017-11-12T03:28:46.707Z,0.00
2017-11-12T03:29:46.645Z,0.00
2017-11-12T03:30:46.587Z,0.00
2017-11-12T03:31:46.509Z,0.00
2017-11-12T03:32:46.444Z,0.00
2017-11-12T03:33:46.376Z,0.00
2017-11-12T03:34:46.314Z,0.00
2017-11-12T03:35:46.251Z,0.00
2017-11-12T03:36:46.194Z,0.00
2017-11-12T03:37:46.137Z,0.00
2017-11-12T03:38:46.058Z,0.00
2017-11-12T03:39:45.997Z,0.00
2017-11-12T03:40:45.927Z,0.00
2017-11-12T03:41:45.866Z,0.00
2017-11-12T03:42:45.804Z,0.00
2017-11-12T03:43:45.745Z,0.00
2017-11-12T03:44:45.688Z,0.00
2017-11-12T03:45:45.610Z,0.00
2017-11-12T03:46:45.546Z,0.00
2017-11-12T03:47:45.476Z,0.00
2017-11-12T03:48:45.415Z,0.00
2017-11-12T03:49:45.355Z,0.00
2017-11-12T03:50:45.296Z,0.00
2017-11-12T03:51:45.241Z,0.00
2017-11-12T03:52:45.160Z,0.00
2017-11-12T03:53:45.096Z,0.00
2017-11-12T03:54:45.026Z,0.00
2017-11-12T03:55:44.970Z,0.00
2017-11-12T03:56:44.904Z,0.00
2017-11-12T03:57:44.848Z,0.00
2017-11-12T03:58:44.793Z,0.00
2017-11-12T03:59:44.711Z,0.00
2017-11-12T04:00:44.655Z,0.00
2017-11-12T04:01:44.579Z,0.00
2017-11-12T04:02:44.518Z,0.00
2017-11-12T04:03:44.455Z,0.00
2017-11-12T04:04:44.406Z,0.00
2017-11-12T04:05:44.344Z,0.00
2017-11-12T04:06:44.261Z,0.00
2017-11-12T04:07:44.192Z,0.00
2017-11-12T04:08:44.131Z,0.00
2017-11-12T04:09:44.068Z,0.00
2017-11-12T04:10:44.008Z,0.00
2017-11-12T04:11:43.952Z,0.00
2017-11-12T04:12:43.875Z,0.00
2017-11-12T04:13:43.812Z,0.00
2017-11-12T04:14:43.741Z,0.00
2017-11-12T04:15:43.681Z,0.00
2017-11-12T04:16:43.631Z,0.00
2017-11-12T04:17:43.560Z,0.00
2017-11-12T04:18:43.503Z,0.00
2017-11-12T04:19:43.426Z,0.00
2017-11-12T04:20:43.361Z,0.00
2017-11-12T04:21:43.298Z,0.00
2017-11-12T04:22:43.232Z,0.00
2017-11-12T04:23:43.168Z,0.00
2017-11-12T04:24:43.111Z,0.00
2017-11-12T04:25:43.061Z,0.00
2017-11-12T04:26:42.979Z,0.00
2017-11-12T04:27:42.916Z,0.00
2017-11-12T04:28:42.841Z,0.00
2017-11-12T04:29:42.782Z,0.00
2017-11-12T04:30:42.720Z,0.00
2017-11-12T04:31:42.663Z,0.00
2017-11-12T04:32:42.609Z,0.00
2017-11-12T04:33:42.526Z,0.00
2017-11-12T04:34:42.463Z,0.00
2017-11-12T04:35:42.392Z,0.00
2017-11-12T04:36:42.332Z,0.00
2017-11-12T04:37:42.271Z,0.00
2017-11-12T04:38:42.214Z,0.00
2017-11-12T04:39:42.159Z,0.00
2017-11-12T04:40:42.076Z,0.00
2017-11-12T04:41:42.013Z,0.00
2017-11-12T04:42:41.945Z,0.00
2017-11-12T04:43:41.884Z,0.00
2017-11-12T04:44:41.828Z,0.00
2017-11-12T04:45:41.766Z,0.00
2017-11-12T04:46:41.711Z,0.00
2017-11-12T04:47:41.626Z,0.00
2017-11-12T04:48:41.565Z,0.00
2017-11-12T04:49:41.495Z,0.00
2017-11-12T04:50:41.435Z,0.00
2017-11-12T04:51:41.375Z,0.00
2017-11-12T04:52:41.318Z,0.00
2017-11-12T04:53:41.245Z,0.00
2017-11-12T04:54:41.181Z,0.00
2017-11-12T04:55:41.115Z,0.00
2017-11-12T04:56:41.052Z,0.00
2017-11-12T04:57:40.986Z,0.00
2017-11-12T04:58:40.926Z,0.00
2017-11-12T04:59:40.870Z,0.00
2017-11-12T05:00:40.796Z,0.00
2017-11-12T05:01:40.732Z,0.00
2017-11-12T05:02:40.664Z,0.00
2017-11-12T05:03:40.601Z,0.00
2017-11-12T05:04:40.541Z,0.00
2017-11-12T05:05:40.478Z,0.00
2017-11-12T05:06:40.426Z,0.00
2017-11-12T05:07:40.367Z,0.00
2017-11-12T05:08:40.284Z,0.00
2017-11-12T05:09:40.221Z,0.00
2017-11-12T05:10:40.153Z,0.00
2017-11-12T05:11:40.092Z,0.00
2017-11-12T05:12:40.031Z,0.00
2017-11-12T05:13:39.974Z,0.00
2017-11-12T05:14:39.919Z,0.00
2017-11-12T05:15:39.838Z,0.00
2017-11-12T05:16:39.775Z,0.00
2017-11-12T05:17:39.705Z,0.00
2017-11-12T05:18:39.646Z,0.00
2017-11-12T05:19:39.591Z,0.00
2017-11-12T05:20:39.533Z,0.00
2017-11-12T05:21:39.471Z,0.00
2017-11-12T05:22:39.391Z,0.00
2017-11-12T05:23:39.336Z,0.00
2017-11-12T05:24:39.260Z,0.00
2017-11-12T05:25:39.197Z,0.00
2017-11-12T05:26:39.136Z,0.00
2017-11-12T05:27:39.079Z,0.00
2017-11-12T05:28:39.023Z,0.00
2017-11-12T05:29:38.943Z,0.00
2017-11-12T05:30:38.881Z,0.00
2017-11-12T05:31:38.810Z,0.00
2017-11-12T05:32:38.751Z,0.00
2017-11-12T05:33:38.689Z,0.00
2017-11-12T05:34:38.630Z,0.00
2017-11-12T05:35:38.574Z,0.00
2017-11-12T05:36:38.499Z,0.00
2017-11-12T05:37:38.432Z,0.00
2017-11-12T05:38:38.366Z,0.00
2017-11-12T05:39:38.302Z,0.00
2017-11-12T05:40:38.242Z,0.00
2017-11-12T05:41:38.185Z,0.00
2017-11-12T05:42:38.127Z,0.00
2017-11-12T05:43:38.050Z,0.00
2017-11-12T05:44:37.988Z,0.00
2017-11-12T05:45:37.928Z,0.00
2017-11-12T05:46:37.855Z,0.00
2017-11-12T05:47:37.797Z,4.00
2017-11-12T05:48:37.731Z,4.00
2017-11-12T05:49:37.679Z,0.00
2017-11-12T05:50:37.605Z,4.00
2017-11-12T05:51:37.540Z,0.00
2017-11-12T05:52:37.477Z,4.00
2017-11-12T05:53:37.415Z,4.00
2017-11-12T05:54:37.349Z,8.00
2017-11-12T05:55:37.288Z,8.00
2017-11-12T05:56:37.231Z,8.00
2017-11-12T05:57:37.158Z,8.00
2017-11-12T05:58:37.106Z,16.00
2017-11-12T05:59:37.031Z,16.00
2017-11-12T06:00:36.962Z,16.00
2017-11-12T06:01:36.902Z,16.00
2017-11-12T06:02:36.842Z,24.00
2017-11-12T06:03:36.784Z,24.00
2017-11-12T06:04:36.728Z,28.00
2017-11-12T06:05:36.650Z,40.00
2017-11-12T06:06:36.585Z,36.00
2017-11-12T06:07:36.520Z,56.00
2017-11-12T06:08:36.454Z,44.00
2017-11-12T06:09:36.395Z,72.00
2017-11-12T06:10:36.336Z,88.00
2017-11-12T06:11:36.280Z,88.00
2017-11-12T06:12:36.201Z,112.00
2017-11-12T06:13:36.140Z,128.00
2017-11-12T06:14:36.070Z,148.00
2017-11-12T06:15:36.023Z,172.00
2017-11-12T06:16:35.947Z,212.00
2017-11-12T06:17:35.884Z,196.00
2017-11-12T06:18:35.831Z,248.00
2017-11-12T06:19:35.757Z,312.00
2017-11-12T06:20:35.689Z,332.00
2017-11-12T06:21:35.631Z,388.00
2017-11-12T06:22:35.564Z,408.00
2017-11-12T06:23:35.500Z,460.00
2017-11-12T06:24:35.439Z,480.00
2017-11-12T06:25:35.384Z,536.00
2017-11-12T06:26:35.309Z,580.00
2017-11-12T06:27:35.244Z,628.00
2017-11-12T06:28:35.173Z,636.00
2017-11-12T06:29:35.113Z,696.00
2017-11-12T06:30:35.054Z,744.00
2017-11-12T06:31:34.992Z,788.00
2017-11-12T06:32:34.936Z,852.00
2017-11-12T06:33:34.863Z,888.00
2017-11-12T06:34:34.799Z,936.00
2017-11-12T06:35:34.735Z,988.00
2017-11-12T06:36:34.669Z,1040.00
2017-11-12T06:37:34.605Z,1084.00
2017-11-12T06:38:34.543Z,1136.00
2017-11-12T06:39:34.493Z,1188.00
2017-11-12T06:40:34.433Z,1240.00
2017-11-12T06:41:34.349Z,1296.00
2017-11-12T06:42:34.286Z,1336.00
2017-11-12T06:43:34.217Z,1380.00
2017-11-12T06:44:34.157Z,1420.00
2017-11-12T06:45:34.098Z,1472.00
2017-11-12T06:46:34.041Z,1524.00
2017-11-12T06:47:33.986Z,1608.00
2017-11-12T06:48:33.902Z,1700.00
2017-11-12T06:49:33.837Z,1788.00
2017-11-12T06:50:33.769Z,1888.00
2017-11-12T06:51:33.708Z,1976.00
2017-11-12T06:52:33.648Z,2056.00
2017-11-12T06:53:33.592Z,2168.00
2017-11-12T06:54:33.537Z,2344.00
2017-11-12T06:55:33.455Z,2320.00
2017-11-12T06:56:33.390Z,2280.00
2017-11-12T06:57:33.322Z,2456.00
2017-11-12T06:58:33.261Z,2376.00
2017-11-12T06:59:33.200Z,2328.00
2017-11-12T07:00:33.144Z,2364.00
2017-11-12T07:01:33.089Z,2540.00
2017-11-12T07:02:33.008Z,2680.00
2017-11-12T07:03:32.946Z,2944.00
2017-11-12T07:04:32.874Z,3144.00
2017-11-12T07:05:32.814Z,3184.00
2017-11-12T07:06:32.753Z,3624.00
2017-11-12T07:07:32.696Z,3964.00
2017-11-12T07:08:32.641Z,3916.00
2017-11-12T07:09:32.559Z,3756.00
2017-11-12T07:10:32.496Z,4012.00
2017-11-12T07:11:32.426Z,4256.00
2017-11-12T07:12:32.368Z,4568.00
2017-11-12T07:13:32.304Z,4480.00
2017-11-12T07:14:32.248Z,4776.00
2017-11-12T07:15:32.193Z,4556.00
2017-11-12T07:16:32.113Z,4936.00
2017-11-12T07:17:32.053Z,4784.00
2017-11-12T07:18:31.979Z,4956.00
2017-11-12T07:19:31.922Z,4928.00
2017-11-12T07:20:31.861Z,4848.00
2017-11-12T07:21:31.801Z,4708.00
2017-11-12T07:22:31.745Z,4624.00
2017-11-12T07:23:31.669Z,5000.00
2017-11-12T07:24:31.603Z,5516.00
2017-11-12T07:25:31.542Z,6112.00
2017-11-12T07:26:31.474Z,6284.00
2017-11-12T07:27:31.414Z,6468.00
2017-11-12T07:28:31.366Z,6584.00
2017-11-12T07:29:31.296Z,7180.00
2017-11-12T07:30:31.242Z,7768.00
2017-11-12T07:31:31.160Z,8088.00
2017-11-12T07:32:31.099Z,8856.00
2017-11-12T07:33:31.030Z,9648.00
2017-11-12T07:34:30.969Z,9372.00
2017-11-12T07:35:30.910Z,8668.00
2017-11-12T07:36:30.850Z,10048.00
2017-11-12T07:37:30.793Z,9484.00
2017-11-12T07:38:30.739Z,9108.00
2017-11-12T07:39:30.658Z,9168.00
2017-11-12T07:40:30.595Z,8996.00
2017-11-12T07:41:30.526Z,8120.00
2017-11-12T07:42:30.466Z,7504.00
2017-11-12T07:43:30.410Z,7340.00
2017-11-12T07:44:30.347Z,7120.00
2017-11-12T07:45:30.291Z,7104.00
2017-11-12T07:46:30.235Z,7328.00
2017-11-12T07:47:30.158Z,7152.00
2017-11-12T07:48:30.096Z,7152.00
2017-11-12T07:49:30.028Z,7272.00
2017-11-12T07:50:29.966Z,7568.00
2017-11-12T07:51:29.907Z,8356.00
2017-11-12T07:52:29.846Z,9424.00
2017-11-12T07:53:29.787Z,9604.00
2017-11-12T07:54:29.720Z,9620.00
2017-11-12T07:55:29.656Z,10008.00
2017-11-12T07:56:29.596Z,11788.00
2017-11-12T07:57:29.538Z,10892.00
2017-11-12T07:58:29.468Z,13236.00
2017-11-12T07:59:29.409Z,14624.00
2017-11-12T08:00:29.346Z,13856.00
2017-11-12T08:01:29.286Z,13360.00
2017-11-12T08:02:29.232Z,11716.00
2017-11-12T08:03:29.175Z,11264.00
2017-11-12T08:04:29.121Z,10136.00
2017-11-12T08:05:29.042Z,9656.00
2017-11-12T08:06:28.984Z,9672.00
2017-11-12T08:07:28.909Z,9540.00
2017-11-12T08:08:28.854Z,9080.00
2017-11-12T08:09:28.792Z,8700.00
2017-11-12T08:10:28.733Z,8116.00
2017-11-12T08:11:28.674Z,8780.00
2017-11-12T08:12:28.618Z,8308.00
2017-11-12T08:13:28.563Z,8832.00
2017-11-12T08:14:28.507Z,9224.00
2017-11-12T08:15:28.428Z,9468.00
2017-11-12T08:16:28.370Z,9396.00
2017-11-12T08:17:28.302Z,9540.00
2017-11-12T08:18:28.239Z,9712.00
2017-11-12T08:19:28.180Z,10060.00
2017-11-12T08:20:28.125Z,10396.00
2017-11-12T08:21:28.061Z,10848.00
2017-11-12T08:22:28.005Z,10796.00
2017-11-12T08:23:27.958Z,11044.00
2017-11-12T08:24:27.896Z,11212.00
2017-11-12T08:25:27.817Z,11036.00
2017-11-12T08:26:27.756Z,10940.00
2017-11-12T08:27:27.697Z,10916.00
2017-11-12T08:28:27.626Z,10708.00
2017-11-12T08:29:27.570Z,10648.00
2017-11-12T08:30:27.537Z,10628.00
2017-11-12T08:31:27.451Z,10724.00
2017-11-12T08:32:27.393Z,10548.00
2017-11-12T08:33:27.337Z,10516.00
2017-11-12T08:34:27.282Z,10292.00
2017-11-12T08:35:27.207Z,10080.00
2017-11-12T08:36:27.144Z,10032.00
2017-11-12T08:37:27.087Z,10168.00
2017-11-12T08:38:27.024Z,9908.00
2017-11-12T08:39:26.963Z,10164.00
2017-11-12T08:40:26.900Z,10284.00
2017-11-12T08:41:26.839Z,10344.00
2017-11-12T08:42:26.783Z,10436.00
2017-11-12T08:43:26.724Z,10348.00
2017-11-12T08:44:26.670Z,10528.00
2017-11-12T08:45:26.616Z,10708.00
2017-11-12T08:46:26.537Z,10972.00
2017-11-12T08:47:26.476Z,11060.00
2017-11-12T08:48:26.417Z,11396.00
2017-11-12T08:49:26.352Z,11368.00
2017-11-12T08:50:26.290Z,11760.00
2017-11-12T08:51:26.232Z,11924.00
2017-11-12T08:52:26.179Z,11840.00
2017-11-12T08:53:26.115Z,11568.00
2017-11-12T08:54:26.059Z,11672.00
2017-11-12T08:55:26.004Z,11212.00
2017-11-12T08:56:25.949Z,11324.00
2017-11-12T08:57:25.872Z,11416.00
2017-11-12T08:58:25.809Z,12272.00
2017-11-12T08:59:25.750Z,12496.00
2017-11-12T09:00:25.687Z,12516.00
2017-11-12T09:01:25.624Z,12628.00
2017-11-12T09:02:25.569Z,12056.00
2017-11-12T09:03:25.507Z,11980.00
2017-11-12T09:04:25.448Z,11768.00
2017-11-12T09:05:25.392Z,11580.00
2017-11-12T09:06:25.337Z,11312.00
2017-11-12T09:07:25.282Z,11336.00
2017-11-12T09:08:25.207Z,11632.00
2017-11-12T09:09:25.149Z,12588.00
2017-11-12T09:10:25.086Z,12524.00
2017-11-12T09:11:25.020Z,11552.00
2017-11-12T09:12:24.958Z,12464.00
2017-11-12T09:13:24.901Z,13096.00
2017-11-12T09:14:24.839Z,13044.00
2017-11-12T09:15:24.786Z,12204.00
2017-11-12T09:16:24.734Z,11712.00
2017-11-12T09:17:24.675Z,11472.00
2017-11-12T09:18:24.605Z,11852.00
2017-11-12T09:19:24.559Z,11412.00
2017-11-12T09:20:24.541Z,11448.00
2017-11-12T09:21:24.433Z,10800.00
2017-11-12T09:22:24.359Z,10408.00
2017-11-12T09:23:24.304Z,10344.00
2017-11-12T09:24:24.236Z,10240.00
2017-11-12T09:25:24.179Z,9952.00
2017-11-12T09:26:24.122Z,9908.00
2017-11-12T09:27:24.062Z,10000.00
2017-11-12T09:28:24.005Z,10088.00
2017-11-12T09:29:23.948Z,10044.00
2017-11-12T09:30:23.907Z,9628.00
2017-11-12T09:31:23.915Z,9532.00
2017-11-12T09:32:23.784Z,9348.00
2017-11-12T09:33:23.705Z,9112.00
2017-11-12T09:34:23.645Z,9060.00
2017-11-12T09:35:23.620Z,8960.00
2017-11-12T09:36:23.517Z,8860.00
2017-11-12T09:37:23.519Z,8748.00
2017-11-12T09:38:23.403Z,8692.00
2017-11-12T09:39:23.343Z,8604.00
2017-11-12T09:40:23.284Z,8568.00
2017-11-12T09:41:23.227Z,8584.00
2017-11-12T09:42:23.171Z,8524.00
2017-11-12T09:43:23.116Z,8540.00
2017-11-12T09:44:23.062Z,8572.00
2017-11-12T09:45:22.982Z,8572.00
2017-11-12T09:46:22.922Z,8596.00
2017-11-12T09:47:22.855Z,8660.00
2017-11-12T09:48:22.795Z,8716.00
2017-11-12T09:49:22.736Z,8748.00
2017-11-12T09:50:22.673Z,8812.00
2017-11-12T09:51:22.626Z,8880.00
2017-11-12T09:52:22.560Z,8940.00
2017-11-12T09:53:22.504Z,8992.00
2017-11-12T09:54:22.450Z,9104.00
2017-11-12T09:55:22.393Z,9184.00
2017-11-12T09:56:22.317Z,9156.00
2017-11-12T09:57:22.260Z,9056.00
2017-11-12T09:58:22.198Z,8996.00
2017-11-12T09:59:22.131Z,8932.00
2017-11-12T10:00:22.069Z,8924.00
2017-11-12T10:01:22.012Z,9008.00
2017-11-12T10:02:21.953Z,9056.00
2017-11-12T10:03:21.894Z,9176.00
2017-11-12T10:04:21.838Z,9288.00
2017-11-12T10:05:21.782Z,9368.00
2017-11-12T10:06:21.728Z,9328.00
2017-11-12T10:07:21.672Z,9412.00
2017-11-12T10:08:21.596Z,9504.00
2017-11-12T10:09:21.532Z,9600.00
2017-11-12T10:10:21.472Z,9692.00
2017-11-12T10:11:21.406Z,9736.00
2017-11-12T10:12:21.409Z,9844.00
2017-11-12T10:13:21.289Z,9836.00
2017-11-12T10:14:21.233Z,9756.00
2017-11-12T10:15:21.172Z,9732.00
2017-11-12T10:16:21.110Z,9696.00
2017-11-12T10:17:21.061Z,9532.00
2017-11-12T10:18:21.009Z,9640.00
2017-11-12T10:19:20.930Z,9696.00
2017-11-12T10:20:20.871Z,9608.00
2017-11-12T10:21:20.811Z,9516.00
2017-11-12T10:22:20.750Z,9428.00
2017-11-12T10:23:20.689Z,9208.00
2017-11-12T10:24:20.624Z,9092.00
2017-11-12T10:25:20.566Z,9020.00
2017-11-12T10:26:20.509Z,8984.00
2017-11-12T10:27:20.451Z,8984.00
2017-11-12T10:28:20.396Z,9052.00
2017-11-12T10:29:20.344Z,9168.00
2017-11-12T10:30:20.285Z,9312.00
2017-11-12T10:31:20.208Z,9552.00
2017-11-12T10:32:20.149Z,9832.00
2017-11-12T10:33:20.102Z,10056.00
2017-11-12T10:34:20.030Z,10244.00
2017-11-12T10:35:19.964Z,10400.00
2017-11-12T10:36:19.904Z,10544.00
2017-11-12T10:37:19.849Z,10580.00
2017-11-12T10:38:19.791Z,10544.00
2017-11-12T10:39:19.731Z,10536.00
2017-11-12T10:40:19.675Z,10448.00
2017-11-12T10:41:19.618Z,10364.00
2017-11-12T10:42:19.565Z,10288.00
2017-11-12T10:43:19.508Z,10228.00
2017-11-12T10:44:19.429Z,10112.00
2017-11-12T10:45:19.373Z,9948.00
2017-11-12T10:46:19.310Z,9832.00
2017-11-12T10:47:19.253Z,9612.00
2017-11-12T10:48:19.186Z,9316.00
2017-11-12T10:49:19.129Z,9260.00
2017-11-12T10:50:19.077Z,9296.00
2017-11-12T10:51:19.013Z,9288.00
2017-11-12T10:52:18.957Z,9520.00
2017-11-12T10:53:18.898Z,9724.00
2017-11-12T10:54:18.841Z,10132.00
2017-11-12T10:55:18.790Z,10252.00
2017-11-12T10:56:18.732Z,10520.00
2017-11-12T10:57:18.654Z,10536.00
2017-11-12T10:58:18.602Z,10204.00
2017-11-12T10:59:18.537Z,9896.00
2017-11-12T11:00:18.479Z,9124.00
2017-11-12T11:01:18.412Z,8872.00
2017-11-12T11:02:18.355Z,8692.00
2017-11-12T11:03:18.296Z,8100.00
2017-11-12T11:04:18.241Z,7756.00
2017-11-12T11:05:18.182Z,7584.00
2017-11-12T11:06:18.124Z,7528.00
2017-11-12T11:07:18.067Z,7600.00
2017-11-12T11:08:18.013Z,7748.00
2017-11-12T11:09:17.946Z,7788.00
2017-11-12T11:10:17.901Z,7292.00
2017-11-12T11:11:17.823Z,6596.00
2017-11-12T11:12:17.767Z,6892.00
2017-11-12T11:13:17.708Z,7184.00
2017-11-12T11:14:17.649Z,7028.00
2017-11-12T11:15:17.582Z,7332.00
2017-11-12T11:16:17.524Z,7508.00
2017-11-12T11:17:17.465Z,7752.00
2017-11-12T11:18:17.406Z,8244.00
2017-11-12T11:19:17.352Z,8424.00
2017-11-12T11:20:17.292Z,8600.00
2017-11-12T11:21:17.237Z,8480.00
2017-11-12T11:22:17.181Z,8372.00
2017-11-12T11:23:17.125Z,7568.00
2017-11-12T11:24:17.072Z,7192.00
2017-11-12T11:25:16.990Z,6736.00
2017-11-12T11:26:16.934Z,6112.00
2017-11-12T11:27:16.874Z,5652.00
2017-11-12T11:28:16.814Z,5464.00
2017-11-12T11:29:16.752Z,5224.00
2017-11-12T11:30:16.693Z,5156.00
2017-11-12T11:31:16.634Z,5288.00
2017-11-12T11:32:16.578Z,5608.00
2017-11-12T11:33:16.516Z,6216.00
2017-11-12T11:34:16.461Z,6688.00
2017-11-12T11:35:16.404Z,6984.00
2017-11-12T11:36:16.351Z,6852.00
2017-11-12T11:37:16.296Z,6980.00
2017-11-12T11:38:16.219Z,6752.00
2017-11-12T11:39:16.158Z,6900.00
2017-11-12T11:40:16.098Z,6928.00
2017-11-12T11:41:16.040Z,6892.00
2017-11-12T11:42:15.979Z,6912.00
2017-11-12T11:43:15.915Z,6876.00
2017-11-12T11:44:15.856Z,6800.00
2017-11-12T11:45:15.798Z,6624.00
2017-11-12T11:46:15.741Z,6508.00
2017-11-12T11:47:15.680Z,6352.00
2017-11-12T11:48:15.630Z,6036.00
2017-11-12T11:49:15.574Z,6032.00
2017-11-12T11:50:15.520Z,5880.00
2017-11-12T11:51:15.436Z,5704.00
2017-11-12T11:52:15.381Z,5580.00
2017-11-12T11:53:15.323Z,5432.00
2017-11-12T11:54:15.263Z,5388.00
2017-11-12T11:55:15.196Z,5380.00
2017-11-12T11:56:15.138Z,5268.00
2017-11-12T11:57:15.081Z,5368.00
2017-11-12T11:58:15.022Z,5244.00
2017-11-12T11:59:14.966Z,4952.00
2017-11-12T12:00:14.910Z,4940.00
2017-11-12T12:01:14.853Z,5040.00
2017-11-12T12:02:14.799Z,5344.00
2017-11-12T12:03:14.726Z,5548.00
2017-11-12T12:04:14.663Z,5632.00
2017-11-12T12:05:14.604Z,5456.00
2017-11-12T12:06:14.545Z,5500.00
2017-11-12T12:07:14.485Z,5608.00
2017-11-12T12:08:14.418Z,5872.00
2017-11-12T12:09:14.361Z,5972.00
2017-11-12T12:10:14.302Z,5932.00
2017-11-12T12:11:14.245Z,5688.00
2017-11-12T12:12:14.188Z,5656.00
2017-11-12T12:13:14.134Z,5712.00
2017-11-12T12:14:14.082Z,5568.00
2017-11-12T12:15:14.023Z,5484.00
2017-11-12T12:16:13.943Z,5392.00
2017-11-12T12:17:13.884Z,5400.00
2017-11-12T12:18:13.824Z,5448.00
2017-11-12T12:19:13.758Z,5396.00
2017-11-12T12:20:13.699Z,5384.00
2017-11-12T12:21:13.640Z,5368.00
2017-11-12T12:22:13.584Z,5312.00
2017-11-12T12:23:13.524Z,5332.00
2017-11-12T12:24:13.467Z,5292.00
2017-11-12T12:25:13.412Z,5124.00
2017-11-12T12:26:13.357Z,5036.00
2017-11-12T12:27:13.283Z,5060.00
2017-11-12T12:28:13.224Z,4976.00
2017-11-12T12:29:13.172Z,4944.00
2017-11-12T12:30:13.105Z,4964.00
2017-11-12T12:31:13.035Z,5008.00
2017-11-12T12:32:12.977Z,4996.00
2017-11-12T12:33:12.919Z,4940.00
2017-11-12T12:34:12.859Z,4892.00
2017-11-12T12:35:12.818Z,4916.00
2017-11-12T12:36:12.746Z,4912.00
2017-11-12T12:37:12.690Z,4848.00